sensor_id;sensor_type;location;lat;lon;timestamp;P1;durP1;ratioP1;P2;durP2;ratioP2
13469;SDS011;6807;48.682;9.032;2022-09-12T00:01:09;13.65;;;11.52;;
13469;SDS011;6807;48.682;9.032;2022-09-12T00:03:38;14.65;;;11.35;;
13469;SDS011;6807;48.682;9.032;2022-09-12T00:06:06;14.20;;;11.45;;
13469;SDS011;6807;48.682;9.032;2022-09-12T00:08:35;13.00;;;10.25;;
13469;SDS011;6807;48.682;9.032;2022-09-12T00:11:03;11.68;;;10.27;;
13469;SDS011;6807;48.682;9.032;2022-09-12T00:13:32;13.63;;;10.75;;
13469;SDS011;6807;48.682;9.032;2022-09-12T00:15:59;15.05;;;10.70;;
13469;SDS011;6807;48.682;9.032;2022-09-12T00:18:26;12.35;;;10.98;;
13469;SDS011;6807;48.682;9.032;2022-09-12T00:20:54;14.00;;;10.52;;
13469;SDS011;6807;48.682;9.032;2022-09-12T00:23:21;15.43;;;10.93;;
13469;SDS011;6807;48.682;9.032;2022-09-12T00:25:48;14.27;;;10.82;;
13469;SDS011;6807;48.682;9.032;2022-09-12T00:28:15;16.60;;;11.45;;
13469;SDS011;6807;48.682;9.032;2022-09-12T00:30:43;13.40;;;11.27;;
13469;SDS011;6807;48.682;9.032;2022-09-12T00:33:13;13.95;;;10.65;;
13469;SDS011;6807;48.682;9.032;2022-09-12T00:35:41;13.93;;;10.93;;
13469;SDS011;6807;48.682;9.032;2022-09-12T00:38:10;19.48;;;11.35;;
13469;SDS011;6807;48.682;9.032;2022-09-12T00:40:37;21.27;;;12.45;;
13469;SDS011;6807;48.682;9.032;2022-09-12T00:43:04;12.52;;;10.65;;
13469;SDS011;6807;48.682;9.032;2022-09-12T00:45:32;13.85;;;10.93;;
13469;SDS011;6807;48.682;9.032;2022-09-12T00:48:00;17.13;;;11.73;;
13469;SDS011;6807;48.682;9.032;2022-09-12T04:34:31;11.73;;;9.20;;
13469;SDS011;6807;48.682;9.032;2022-09-12T04:36:58;14.02;;;10.18;;
13469;SDS011;6807;48.682;9.032;2022-09-12T04:39:25;17.08;;;10.10;;
13469;SDS011;6807;48.682;9.032;2022-09-12T04:41:52;13.70;;;9.77;;
13469;SDS011;6807;48.682;9.032;2022-09-12T04:44:19;14.27;;;9.93;;
13469;SDS011;6807;48.682;9.032;2022-09-12T04:46:46;12.45;;;8.95;;
13469;SDS011;6807;48.682;9.032;2022-09-12T04:49:14;13.43;;;9.45;;
13469;SDS011;6807;48.682;9.032;2022-09-12T04:51:45;13.27;;;10.18;;
13469;SDS011;6807;48.682;9.032;2022-09-12T04:54:12;15.70;;;10.68;;
13469;SDS011;6807;48.682;9.032;2022-09-12T04:56:42;15.52;;;10.95;;
13469;SDS011;6807;48.682;9.032;2022-09-12T04:59:14;16.50;;;11.05;;
13469;SDS011;6807;48.682;9.032;2022-09-12T05:01:43;18.00;;;11.35;;
13469;SDS011;6807;48.682;9.032;2022-09-12T05:04:12;17.23;;;11.85;;
13469;SDS011;6807;48.682;9.032;2022-09-12T05:06:39;16.77;;;11.45;;
13469;SDS011;6807;48.682;9.032;2022-09-12T05:12:07;19.83;;;11.75;;
13469;SDS011;6807;48.682;9.032;2022-09-12T05:14:34;19.40;;;12.63;;
13469;SDS011;6807;48.682;9.032;2022-09-12T05:17:02;21.63;;;12.15;;
13469;SDS011;6807;48.682;9.032;2022-09-12T05:19:30;15.93;;;11.00;;
13469;SDS011;6807;48.682;9.032;2022-09-12T05:21:57;16.30;;;11.55;;
13469;SDS011;6807;48.682;9.032;2022-09-12T05:24:25;19.45;;;11.70;;
13469;SDS011;6807;48.682;9.032;2022-09-12T05:26:53;20.60;;;12.32;;
13469;SDS011;6807;48.682;9.032;2022-09-12T05:29:23;15.05;;;11.38;;
13469;SDS011;6807;48.682;9.032;2022-09-12T05:31:51;16.95;;;10.70;;
13469;SDS011;6807;48.682;9.032;2022-09-12T05:37:46;17.15;;;11.68;;
13469;SDS011;6807;48.682;9.032;2022-09-12T05:40:13;18.20;;;11.25;;
13469;SDS011;6807;48.682;9.032;2022-09-12T05:42:43;16.60;;;12.02;;
13469;SDS011;6807;48.682;9.032;2022-09-12T05:45:10;18.45;;;12.32;;
13469;SDS011;6807;48.682;9.032;2022-09-12T05:47:41;20.83;;;14.00;;
13469;SDS011;6807;48.682;9.032;2022-09-12T05:50:19;20.98;;;14.60;;
13469;SDS011;6807;48.682;9.032;2022-09-12T05:52:56;22.63;;;14.77;;
13469;SDS011;6807;48.682;9.032;2022-09-12T05:55:26;22.40;;;15.10;;
13469;SDS011;6807;48.682;9.032;2022-09-12T05:58:15;14.48;;;12.10;;
13469;SDS011;6807;48.682;9.032;2022-09-12T06:00:46;15.35;;;11.77;;
13469;SDS011;6807;48.682;9.032;2022-09-12T06:03:25;13.13;;;10.65;;
13469;SDS011;6807;48.682;9.032;2022-09-12T06:08:32;9.75;;;8.57;;
13469;SDS011;6807;48.682;9.032;2022-09-12T06:11:11;10.25;;;8.75;;
13469;SDS011;6807;48.682;9.032;2022-09-12T06:13:41;8.90;;;8.00;;
13469;SDS011;6807;48.682;9.032;2022-09-12T06:18:41;10.73;;;8.43;;
13469;SDS011;6807;48.682;9.032;2022-09-12T06:21:14;9.57;;;8.10;;
13469;SDS011;6807;48.682;9.032;2022-09-12T06:23:42;9.30;;;7.35;;
13469;SDS011;6807;48.682;9.032;2022-09-12T06:26:14;7.22;;;6.53;;
13469;SDS011;6807;48.682;9.032;2022-09-12T06:28:48;7.07;;;6.38;;
13469;SDS011;6807;48.682;9.032;2022-09-12T06:31:16;7.38;;;6.68;;
13469;SDS011;6807;48.682;9.032;2022-09-12T06:33:47;7.38;;;6.68;;
13469;SDS011;6807;48.682;9.032;2022-09-12T06:36:16;6.68;;;6.07;;
13469;SDS011;6807;48.682;9.032;2022-09-12T06:38:45;7.47;;;6.78;;
13469;SDS011;6807;48.682;9.032;2022-09-12T06:41:14;7.65;;;6.63;;
13469;SDS011;6807;48.682;9.032;2022-09-12T06:43:42;8.23;;;6.90;;
13469;SDS011;6807;48.682;9.032;2022-09-12T06:46:10;7.63;;;6.93;;
13469;SDS011;6807;48.682;9.032;2022-09-12T06:48:37;10.90;;;7.75;;
13469;SDS011;6807;48.682;9.032;2022-09-12T06:51:05;6.93;;;6.18;;
13469;SDS011;6807;48.682;9.032;2022-09-12T06:53:35;7.75;;;6.95;;
13469;SDS011;6807;48.682;9.032;2022-09-12T06:56:03;7.63;;;6.82;;
13469;SDS011;6807;48.682;9.032;2022-09-12T06:58:32;6.35;;;5.75;;
13469;SDS011;6807;48.682;9.032;2022-09-12T07:01:01;6.07;;;5.55;;
13469;SDS011;6807;48.682;9.032;2022-09-12T07:03:30;5.50;;;5.00;;
13469;SDS011;6807;48.682;9.032;2022-09-12T07:06:00;5.85;;;5.28;;
13469;SDS011;6807;48.682;9.032;2022-09-12T07:08:29;6.72;;;5.15;;
13469;SDS011;6807;48.682;9.032;2022-09-12T07:10:56;5.93;;;5.03;;
13469;SDS011;6807;48.682;9.032;2022-09-12T07:13:26;5.60;;;5.10;;
13469;SDS011;6807;48.682;9.032;2022-09-12T07:15:53;5.32;;;4.82;;
13469;SDS011;6807;48.682;9.032;2022-09-12T07:18:20;6.88;;;5.20;;
13469;SDS011;6807;48.682;9.032;2022-09-12T07:20:49;5.80;;;5.25;;
13469;SDS011;6807;48.682;9.032;2022-09-12T07:23:16;5.90;;;4.70;;
13469;SDS011;6807;48.682;9.032;2022-09-12T07:25:48;5.07;;;4.57;;
13469;SDS011;6807;48.682;9.032;2022-09-12T07:28:18;6.50;;;4.40;;
13469;SDS011;6807;48.682;9.032;2022-09-12T07:30:45;4.90;;;4.20;;
13469;SDS011;6807;48.682;9.032;2022-09-12T07:33:12;4.90;;;4.05;;
13469;SDS011;6807;48.682;9.032;2022-09-12T07:35:39;3.70;;;3.40;;
13469;SDS011;6807;48.682;9.032;2022-09-12T07:38:07;4.15;;;3.70;;
13469;SDS011;6807;48.682;9.032;2022-09-12T07:40:34;3.55;;;3.25;;
13469;SDS011;6807;48.682;9.032;2022-09-12T07:43:01;4.63;;;3.33;;
13469;SDS011;6807;48.682;9.032;2022-09-12T07:45:28;3.55;;;3.25;;
13469;SDS011;6807;48.682;9.032;2022-09-12T07:47:55;3.28;;;3.05;;
13469;SDS011;6807;48.682;9.032;2022-09-12T07:50:21;4.47;;;3.40;;
13469;SDS011;6807;48.682;9.032;2022-09-12T07:52:48;3.30;;;3.00;;
13469;SDS011;6807;48.682;9.032;2022-09-12T07:55:16;22.17;;;4.78;;
13469;SDS011;6807;48.682;9.032;2022-09-12T07:57:43;3.15;;;2.85;;
13469;SDS011;6807;48.682;9.032;2022-09-12T08:00:10;2.42;;;2.22;;
13469;SDS011;6807;48.682;9.032;2022-09-12T08:02:38;2.60;;;2.40;;
13469;SDS011;6807;48.682;9.032;2022-09-12T08:05:05;2.60;;;2.40;;
13469;SDS011;6807;48.682;9.032;2022-09-12T08:07:32;2.50;;;2.30;;
13469;SDS011;6807;48.682;9.032;2022-09-12T08:09:59;4.35;;;2.88;;
13469;SDS011;6807;48.682;9.032;2022-09-12T08:12:28;2.63;;;2.33;;
13469;SDS011;6807;48.682;9.032;2022-09-12T08:14:56;2.50;;;2.30;;
13469;SDS011;6807;48.682;9.032;2022-09-12T08:17:23;3.75;;;2.45;;
13469;SDS011;6807;48.682;9.032;2022-09-12T08:19:50;2.70;;;2.50;;
13469;SDS011;6807;48.682;9.032;2022-09-12T08:22:17;3.17;;;2.40;;
13469;SDS011;6807;48.682;9.032;2022-09-12T08:24:46;3.65;;;2.08;;
13469;SDS011;6807;48.682;9.032;2022-09-12T08:27:13;4.05;;;2.42;;
13469;SDS011;6807;48.682;9.032;2022-09-12T08:29:41;2.72;;;2.30;;
13469;SDS011;6807;48.682;9.032;2022-09-12T08:32:08;2.50;;;2.20;;
13469;SDS011;6807;48.682;9.032;2022-09-12T08:34:35;2.40;;;2.20;;
13469;SDS011;6807;48.682;9.032;2022-09-12T08:37:02;2.35;;;2.15;;
13469;SDS011;6807;48.682;9.032;2022-09-12T08:39:29;2.78;;;2.35;;
13469;SDS011;6807;48.682;9.032;2022-09-12T08:41:57;2.63;;;2.40;;
13469;SDS011;6807;48.682;9.032;2022-09-12T08:47:22;2.30;;;2.10;;
13469;SDS011;6807;48.682;9.032;2022-09-12T08:49:54;2.95;;;2.65;;
13469;SDS011;6807;48.682;9.032;2022-09-12T08:52:26;2.97;;;2.40;;
13469;SDS011;6807;48.682;9.032;2022-09-12T08:54:59;2.83;;;2.50;;
13469;SDS011;6807;48.682;9.032;2022-09-12T08:57:27;3.13;;;2.35;;
13469;SDS011;6807;48.682;9.032;2022-09-12T08:59:55;2.80;;;1.90;;
13469;SDS011;6807;48.682;9.032;2022-09-12T09:02:30;2.92;;;2.08;;
13469;SDS011;6807;48.682;9.032;2022-09-12T09:05:11;4.55;;;2.25;;
13469;SDS011;6807;48.682;9.032;2022-09-12T09:07:58;2.30;;;2.10;;
13469;SDS011;6807;48.682;9.032;2022-09-12T09:10:39;3.05;;;2.10;;
13469;SDS011;6807;48.682;9.032;2022-09-12T09:13:15;2.10;;;1.90;;
13469;SDS011;6807;48.682;9.032;2022-09-12T09:16:18;3.28;;;1.92;;
13469;SDS011;6807;48.682;9.032;2022-09-12T09:18:51;3.67;;;2.03;;
13469;SDS011;6807;48.682;9.032;2022-09-12T09:21:22;2.55;;;1.83;;
13469;SDS011;6807;48.682;9.032;2022-09-12T09:23:56;3.55;;;2.05;;
13469;SDS011;6807;48.682;9.032;2022-09-12T09:26:28;2.38;;;1.90;;
13469;SDS011;6807;48.682;9.032;2022-09-12T09:29:00;2.22;;;2.03;;
13469;SDS011;6807;48.682;9.032;2022-09-12T09:31:34;1.80;;;1.70;;
13469;SDS011;6807;48.682;9.032;2022-09-12T09:34:05;2.53;;;1.88;;
13469;SDS011;6807;48.682;9.032;2022-09-12T09:36:40;2.63;;;2.13;;
13469;SDS011;6807;48.682;9.032;2022-09-12T09:39:15;2.00;;;1.85;;
13469;SDS011;6807;48.682;9.032;2022-09-12T09:41:52;2.00;;;1.80;;
13469;SDS011;6807;48.682;9.032;2022-09-12T09:44:36;1.50;;;1.40;;
13469;SDS011;6807;48.682;9.032;2022-09-12T09:47:05;1.75;;;1.65;;
13469;SDS011;6807;48.682;9.032;2022-09-12T09:49:35;2.15;;;1.80;;
13469;SDS011;6807;48.682;9.032;2022-09-12T09:52:02;2.67;;;1.67;;
13469;SDS011;6807;48.682;9.032;2022-09-12T09:54:33;1.80;;;1.70;;
13469;SDS011;6807;48.682;9.032;2022-09-12T09:57:02;2.95;;;1.80;;
13469;SDS011;6807;48.682;9.032;2022-09-12T09:59:31;1.63;;;1.52;;
13469;SDS011;6807;48.682;9.032;2022-09-12T10:01:59;2.75;;;1.70;;
13469;SDS011;6807;48.682;9.032;2022-09-12T10:04:51;1.98;;;1.48;;
13469;SDS011;6807;48.682;9.032;2022-09-12T10:07:20;1.65;;;1.55;;
13469;SDS011;6807;48.682;9.032;2022-09-12T10:10:03;1.77;;;1.67;;
13469;SDS011;6807;48.682;9.032;2022-09-12T10:12:32;1.50;;;1.40;;
13469;SDS011;6807;48.682;9.032;2022-09-12T10:15:00;1.63;;;1.52;;
13469;SDS011;6807;48.682;9.032;2022-09-12T10:17:28;1.73;;;1.45;;
13469;SDS011;6807;48.682;9.032;2022-09-12T10:19:57;1.60;;;1.50;;
13469;SDS011;6807;48.682;9.032;2022-09-12T10:22:25;1.58;;;1.48;;
13469;SDS011;6807;48.682;9.032;2022-09-12T10:24:55;1.60;;;1.50;;
13469;SDS011;6807;48.682;9.032;2022-09-12T10:27:25;1.40;;;1.20;;
13469;SDS011;6807;48.682;9.032;2022-09-12T10:29:59;1.58;;;1.48;;
13469;SDS011;6807;48.682;9.032;2022-09-12T10:32:28;1.27;;;1.20;;
13469;SDS011;6807;48.682;9.032;2022-09-12T10:35:02;2.10;;;1.50;;
13469;SDS011;6807;48.682;9.032;2022-09-12T10:37:34;1.60;;;1.50;;
13469;SDS011;6807;48.682;9.032;2022-09-12T10:40:04;2.30;;;1.88;;
13469;SDS011;6807;48.682;9.032;2022-09-12T10:42:46;1.42;;;1.33;;
13469;SDS011;6807;48.682;9.032;2022-09-12T10:45:19;1.40;;;1.30;;
13469;SDS011;6807;48.682;9.032;2022-09-12T10:47:48;1.60;;;1.50;;
13469;SDS011;6807;48.682;9.032;2022-09-12T10:50:26;1.50;;;1.40;;
13469;SDS011;6807;48.682;9.032;2022-09-12T10:55:40;1.48;;;1.38;;
13469;SDS011;6807;48.682;9.032;2022-09-12T10:58:27;1.80;;;1.40;;
13469;SDS011;6807;48.682;9.032;2022-09-12T11:01:03;1.38;;;1.27;;
13469;SDS011;6807;48.682;9.032;2022-09-12T11:03:45;2.90;;;1.50;;
13469;SDS011;6807;48.682;9.032;2022-09-12T11:06:29;5.30;;;2.10;;
13469;SDS011;6807;48.682;9.032;2022-09-12T11:09:03;1.95;;;1.70;;
13469;SDS011;6807;48.682;9.032;2022-09-12T11:11:40;1.63;;;1.27;;
13469;SDS011;6807;48.682;9.032;2022-09-12T11:14:21;1.60;;;1.50;;
13469;SDS011;6807;48.682;9.032;2022-09-12T11:16:56;2.85;;;1.70;;
13469;SDS011;6807;48.682;9.032;2022-09-12T11:19:40;1.30;;;1.20;;
13469;SDS011;6807;48.682;9.032;2022-09-12T11:22:41;1.50;;;1.30;;
13469;SDS011;6807;48.682;9.032;2022-09-12T11:25:27;1.50;;;1.40;;
13469;SDS011;6807;48.682;9.032;2022-09-12T11:30:56;4.07;;;1.70;;
13469;SDS011;6807;48.682;9.032;2022-09-12T11:33:40;1.77;;;1.50;;
13469;SDS011;6807;48.682;9.032;2022-09-12T11:36:12;1.80;;;1.40;;
13469;SDS011;6807;48.682;9.032;2022-09-12T11:38:51;1.30;;;1.20;;
13469;SDS011;6807;48.682;9.032;2022-09-12T11:41:34;4.28;;;1.40;;
13469;SDS011;6807;48.682;9.032;2022-09-12T11:44:09;5.47;;;1.48;;
13469;SDS011;6807;48.682;9.032;2022-09-12T11:46:41;2.05;;;1.60;;
13469;SDS011;6807;48.682;9.032;2022-09-12T11:49:15;2.65;;;1.48;;
13469;SDS011;6807;48.682;9.032;2022-09-12T11:51:47;2.17;;;1.20;;
13469;SDS011;6807;48.682;9.032;2022-09-12T11:54:21;1.30;;;1.20;;
13469;SDS011;6807;48.682;9.032;2022-09-12T11:56:57;1.30;;;1.20;;
13469;SDS011;6807;48.682;9.032;2022-09-12T11:59:34;1.80;;;1.33;;
13469;SDS011;6807;48.682;9.032;2022-09-12T12:02:13;2.53;;;1.40;;
13469;SDS011;6807;48.682;9.032;2022-09-12T12:04:53;10.15;;;2.22;;
13469;SDS011;6807;48.682;9.032;2022-09-12T12:07:27;3.90;;;1.58;;
13469;SDS011;6807;48.682;9.032;2022-09-12T12:10:01;1.50;;;1.40;;
13469;SDS011;6807;48.682;9.032;2022-09-12T12:12:29;3.55;;;1.73;;
13469;SDS011;6807;48.682;9.032;2022-09-12T12:14:57;2.92;;;1.65;;
13469;SDS011;6807;48.682;9.032;2022-09-12T12:17:28;9.43;;;2.55;;
13469;SDS011;6807;48.682;9.032;2022-09-12T12:19:58;1.67;;;1.30;;
13469;SDS011;6807;48.682;9.032;2022-09-12T12:22:27;5.18;;;1.60;;
13469;SDS011;6807;48.682;9.032;2022-09-12T12:25:21;1.20;;;1.10;;
13469;SDS011;6807;48.682;9.032;2022-09-12T12:27:51;1.88;;;1.50;;
13469;SDS011;6807;48.682;9.032;2022-09-12T12:36:40;10.18;;;1.38;;
13469;SDS011;6807;48.682;9.032;2022-09-12T12:45:56;2.58;;;1.60;;
13469;SDS011;6807;48.682;9.032;2022-09-12T12:48:34;1.40;;;1.30;;
13469;SDS011;6807;48.682;9.032;2022-09-12T12:51:30;1.20;;;1.10;;
13469;SDS011;6807;48.682;9.032;2022-09-12T12:57:27;1.20;;;1.10;;
13469;SDS011;6807;48.682;9.032;2022-09-12T13:00:30;1.40;;;1.30;;
13469;SDS011;6807;48.682;9.032;2022-09-12T13:03:05;1.40;;;1.30;;
13469;SDS011;6807;48.682;9.032;2022-09-12T13:05:37;1.05;;;1.00;;
13469;SDS011;6807;48.682;9.032;2022-09-12T13:08:08;1.98;;;1.08;;
13469;SDS011;6807;48.682;9.032;2022-09-12T13:10:38;1.48;;;1.10;;
13469;SDS011;6807;48.682;9.032;2022-09-12T13:13:20;1.85;;;1.00;;
13469;SDS011;6807;48.682;9.032;2022-09-12T13:15:52;1.25;;;1.15;;
13469;SDS011;6807;48.682;9.032;2022-09-12T13:18:24;0.95;;;0.95;;
13469;SDS011;6807;48.682;9.032;2022-09-12T13:20:54;224.38;;;18.90;;
13469;SDS011;6807;48.682;9.032;2022-09-12T13:23:31;2.80;;;1.35;;
13469;SDS011;6807;48.682;9.032;2022-09-12T13:25:59;1.38;;;1.27;;
13469;SDS011;6807;48.682;9.032;2022-09-12T13:28:28;1.00;;;1.00;;
13469;SDS011;6807;48.682;9.032;2022-09-12T13:30:58;1.40;;;1.20;;
13469;SDS011;6807;48.682;9.032;2022-09-12T13:33:32;1.52;;;1.10;;
13469;SDS011;6807;48.682;9.032;2022-09-12T13:36:19;1.23;;;1.13;;
13469;SDS011;6807;48.682;9.032;2022-09-12T13:39:03;4.03;;;1.38;;
13469;SDS011;6807;48.682;9.032;2022-09-12T13:41:45;1.40;;;1.30;;
13469;SDS011;6807;48.682;9.032;2022-09-12T13:44:49;2.25;;;1.30;;
13469;SDS011;6807;48.682;9.032;2022-09-12T13:47:20;1.00;;;1.00;;
13469;SDS011;6807;48.682;9.032;2022-09-12T13:49:53;1.35;;;1.25;;
13469;SDS011;6807;48.682;9.032;2022-09-12T13:52:22;4.45;;;1.30;;
13469;SDS011;6807;48.682;9.032;2022-09-12T13:54:52;1.20;;;1.10;;
13469;SDS011;6807;48.682;9.032;2022-09-12T13:57:27;1.42;;;1.33;;
13469;SDS011;6807;48.682;9.032;2022-09-12T13:59:58;1.50;;;1.40;;
13469;SDS011;6807;48.682;9.032;2022-09-12T14:02:27;1.13;;;1.02;;
13469;SDS011;6807;48.682;9.032;2022-09-12T14:04:56;1.17;;;1.10;;
13469;SDS011;6807;48.682;9.032;2022-09-12T14:07:45;1.23;;;1.13;;
13469;SDS011;6807;48.682;9.032;2022-09-12T14:10:21;1.17;;;1.10;;
13469;SDS011;6807;48.682;9.032;2022-09-12T14:12:52;1.30;;;1.20;;
13469;SDS011;6807;48.682;9.032;2022-09-12T14:15:21;1.40;;;1.30;;
13469;SDS011;6807;48.682;9.032;2022-09-12T14:17:52;1.20;;;1.10;;
13469;SDS011;6807;48.682;9.032;2022-09-12T14:20:26;1.35;;;1.25;;
13469;SDS011;6807;48.682;9.032;2022-09-12T14:22:58;1.05;;;1.05;;
13469;SDS011;6807;48.682;9.032;2022-09-12T14:25:28;1.40;;;1.30;;
13469;SDS011;6807;48.682;9.032;2022-09-12T14:28:01;1.20;;;1.10;;
13469;SDS011;6807;48.682;9.032;2022-09-12T14:30:30;1.42;;;1.25;;
13469;SDS011;6807;48.682;9.032;2022-09-12T14:33:04;1.60;;;1.30;;
13469;SDS011;6807;48.682;9.032;2022-09-12T14:35:44;1.20;;;1.10;;
13469;SDS011;6807;48.682;9.032;2022-09-12T14:38:17;21.58;;;3.40;;
13469;SDS011;6807;48.682;9.032;2022-09-12T14:40:49;1.20;;;1.10;;
13469;SDS011;6807;48.682;9.032;2022-09-12T14:43:24;1.65;;;1.40;;
13469;SDS011;6807;48.682;9.032;2022-09-12T14:45:53;1.50;;;1.30;;
13469;SDS011;6807;48.682;9.032;2022-09-12T14:48:23;1.92;;;1.48;;
13469;SDS011;6807;48.682;9.032;2022-09-12T14:50:53;1.48;;;1.38;;
13469;SDS011;6807;48.682;9.032;2022-09-12T14:53:22;1.50;;;1.40;;
13469;SDS011;6807;48.682;9.032;2022-09-12T14:55:56;1.50;;;1.40;;
13469;SDS011;6807;48.682;9.032;2022-09-12T14:58:28;1.50;;;1.40;;
13469;SDS011;6807;48.682;9.032;2022-09-12T15:00:56;1.20;;;1.10;;
13469;SDS011;6807;48.682;9.032;2022-09-12T15:03:27;1.30;;;1.20;;
13469;SDS011;6807;48.682;9.032;2022-09-12T15:05:57;1.20;;;1.10;;
13469;SDS011;6807;48.682;9.032;2022-09-12T15:08:25;1.30;;;1.20;;
13469;SDS011;6807;48.682;9.032;2022-09-12T15:10:54;1.40;;;1.27;;
13469;SDS011;6807;48.682;9.032;2022-09-12T15:13:22;1.45;;;1.20;;
13469;SDS011;6807;48.682;9.032;2022-09-12T15:15:51;1.50;;;1.40;;
13469;SDS011;6807;48.682;9.032;2022-09-12T15:18:20;1.50;;;1.40;;
13469;SDS011;6807;48.682;9.032;2022-09-12T15:20:49;1.55;;;1.45;;
13469;SDS011;6807;48.682;9.032;2022-09-12T15:23:28;2.25;;;1.38;;
13469;SDS011;6807;48.682;9.032;2022-09-12T15:25:58;1.30;;;1.17;;
13469;SDS011;6807;48.682;9.032;2022-09-12T15:28:25;1.33;;;1.23;;
13469;SDS011;6807;48.682;9.032;2022-09-12T15:30:53;1.50;;;1.40;;
13469;SDS011;6807;48.682;9.032;2022-09-12T15:33:22;1.60;;;1.50;;
13469;SDS011;6807;48.682;9.032;2022-09-12T15:35:50;1.50;;;1.40;;
13469;SDS011;6807;48.682;9.032;2022-09-12T15:38:19;1.65;;;1.55;;
13469;SDS011;6807;48.682;9.032;2022-09-12T15:40:50;1.60;;;1.50;;
13469;SDS011;6807;48.682;9.032;2022-09-12T15:43:18;1.60;;;1.50;;
13469;SDS011;6807;48.682;9.032;2022-09-12T15:45:46;1.70;;;1.60;;
13469;SDS011;6807;48.682;9.032;2022-09-12T15:48:15;1.48;;;1.38;;
13469;SDS011;6807;48.682;9.032;2022-09-12T15:50:42;1.50;;;1.40;;
13469;SDS011;6807;48.682;9.032;2022-09-12T15:53:11;1.50;;;1.40;;
13469;SDS011;6807;48.682;9.032;2022-09-12T15:55:41;1.50;;;1.40;;
13469;SDS011;6807;48.682;9.032;2022-09-12T15:58:09;1.83;;;1.50;;
13469;SDS011;6807;48.682;9.032;2022-09-12T16:00:35;1.52;;;1.42;;
13469;SDS011;6807;48.682;9.032;2022-09-12T16:03:02;3.42;;;1.60;;
13469;SDS011;6807;48.682;9.032;2022-09-12T16:05:29;1.98;;;1.50;;
13469;SDS011;6807;48.682;9.032;2022-09-12T16:07:57;1.58;;;1.48;;
13469;SDS011;6807;48.682;9.032;2022-09-12T16:10:24;1.50;;;1.40;;
13469;SDS011;6807;48.682;9.032;2022-09-12T16:12:55;1.77;;;1.67;;
13469;SDS011;6807;48.682;9.032;2022-09-12T16:15:23;1.40;;;1.30;;
13469;SDS011;6807;48.682;9.032;2022-09-12T16:17:50;3.22;;;1.40;;
13469;SDS011;6807;48.682;9.032;2022-09-12T16:20:17;4.13;;;1.40;;
13469;SDS011;6807;48.682;9.032;2022-09-12T16:22:45;1.65;;;1.55;;
13469;SDS011;6807;48.682;9.032;2022-09-12T16:25:12;1.70;;;1.60;;
13469;SDS011;6807;48.682;9.032;2022-09-12T16:27:39;2.85;;;1.50;;
13469;SDS011;6807;48.682;9.032;2022-09-12T16:30:08;2.00;;;1.70;;
13469;SDS011;6807;48.682;9.032;2022-09-12T16:32:37;4.97;;;1.70;;
13469;SDS011;6807;48.682;9.032;2022-09-12T16:35:05;2.75;;;1.73;;
13469;SDS011;6807;48.682;9.032;2022-09-12T16:37:32;2.65;;;1.75;;
13469;SDS011;6807;48.682;9.032;2022-09-12T16:40:02;1.58;;;1.48;;
13469;SDS011;6807;48.682;9.032;2022-09-12T16:42:29;2.15;;;1.50;;
13469;SDS011;6807;48.682;9.032;2022-09-12T16:44:56;1.77;;;1.42;;
13469;SDS011;6807;48.682;9.032;2022-09-12T16:47:24;2.30;;;1.40;;
13469;SDS011;6807;48.682;9.032;2022-09-12T16:49:51;8.52;;;1.50;;
13469;SDS011;6807;48.682;9.032;2022-09-12T16:52:18;1.80;;;1.50;;
13469;SDS011;6807;48.682;9.032;2022-09-12T16:54:46;1.80;;;1.55;;
13469;SDS011;6807;48.682;9.032;2022-09-12T16:57:13;3.25;;;1.40;;
13469;SDS011;6807;48.682;9.032;2022-09-12T16:59:40;1.50;;;1.40;;
13469;SDS011;6807;48.682;9.032;2022-09-12T17:02:09;2.50;;;1.80;;
13469;SDS011;6807;48.682;9.032;2022-09-12T17:04:39;2.58;;;1.60;;
13469;SDS011;6807;48.682;9.032;2022-09-12T17:07:06;1.42;;;1.33;;
13469;SDS011;6807;48.682;9.032;2022-09-12T17:09:33;2.72;;;1.70;;
13469;SDS011;6807;48.682;9.032;2022-09-12T17:12:00;1.95;;;1.50;;
13469;SDS011;6807;48.682;9.032;2022-09-12T17:14:27;1.50;;;1.40;;
13469;SDS011;6807;48.682;9.032;2022-09-12T17:16:54;1.60;;;1.50;;
13469;SDS011;6807;48.682;9.032;2022-09-12T17:19:22;1.77;;;1.60;;
13469;SDS011;6807;48.682;9.032;2022-09-12T17:21:53;1.55;;;1.40;;
13469;SDS011;6807;48.682;9.032;2022-09-12T17:24:20;3.05;;;1.60;;
13469;SDS011;6807;48.682;9.032;2022-09-12T17:26:48;1.77;;;1.35;;
13469;SDS011;6807;48.682;9.032;2022-09-12T17:29:15;1.98;;;1.77;;
13469;SDS011;6807;48.682;9.032;2022-09-12T17:31:42;1.95;;;1.45;;
13469;SDS011;6807;48.682;9.032;2022-09-12T17:34:09;1.50;;;1.40;;
13469;SDS011;6807;48.682;9.032;2022-09-12T17:36:38;2.05;;;1.85;;
13469;SDS011;6807;48.682;9.032;2022-09-12T17:39:09;2.72;;;1.73;;
13469;SDS011;6807;48.682;9.032;2022-09-12T17:41:37;2.38;;;1.42;;
13469;SDS011;6807;48.682;9.032;2022-09-12T17:44:08;3.00;;;1.65;;
13469;SDS011;6807;48.682;9.032;2022-09-12T17:46:37;1.80;;;1.60;;
13469;SDS011;6807;48.682;9.032;2022-09-12T17:49:05;1.77;;;1.67;;
13469;SDS011;6807;48.682;9.032;2022-09-12T17:51:33;2.55;;;1.50;;
13469;SDS011;6807;48.682;9.032;2022-09-12T17:54:01;1.70;;;1.60;;
13469;SDS011;6807;48.682;9.032;2022-09-12T17:56:32;2.78;;;1.70;;
13469;SDS011;6807;48.682;9.032;2022-09-12T17:59:01;1.80;;;1.63;;
13469;SDS011;6807;48.682;9.032;2022-09-12T18:01:29;1.80;;;1.70;;
13469;SDS011;6807;48.682;9.032;2022-09-12T18:04:14;1.52;;;1.42;;
13469;SDS011;6807;48.682;9.032;2022-09-12T18:06:42;2.78;;;1.67;;
13469;SDS011;6807;48.682;9.032;2022-09-12T18:09:13;1.60;;;1.45;;
13469;SDS011;6807;48.682;9.032;2022-09-12T18:11:44;1.60;;;1.50;;
13469;SDS011;6807;48.682;9.032;2022-09-12T18:14:12;4.70;;;1.50;;
13469;SDS011;6807;48.682;9.032;2022-09-12T18:16:39;3.30;;;1.73;;
13469;SDS011;6807;48.682;9.032;2022-09-12T18:19:08;10.85;;;2.03;;
13469;SDS011;6807;48.682;9.032;2022-09-12T18:21:39;19.92;;;2.55;;
13469;SDS011;6807;48.682;9.032;2022-09-12T18:24:12;2.17;;;1.60;;
13469;SDS011;6807;48.682;9.032;2022-09-12T18:26:39;2.67;;;1.50;;
13469;SDS011;6807;48.682;9.032;2022-09-12T18:29:15;5.38;;;1.45;;
13469;SDS011;6807;48.682;9.032;2022-09-12T18:31:44;2.03;;;1.58;;
13469;SDS011;6807;48.682;9.032;2022-09-12T18:34:13;2.28;;;1.83;;
13469;SDS011;6807;48.682;9.032;2022-09-12T18:36:40;1.80;;;1.70;;
13469;SDS011;6807;48.682;9.032;2022-09-12T18:39:09;2.20;;;1.45;;
13469;SDS011;6807;48.682;9.032;2022-09-12T18:41:36;2.88;;;1.52;;
13469;SDS011;6807;48.682;9.032;2022-09-12T18:44:03;1.70;;;1.60;;
13469;SDS011;6807;48.682;9.032;2022-09-12T18:46:33;2.10;;;1.60;;
13469;SDS011;6807;48.682;9.032;2022-09-12T18:49:00;3.55;;;1.80;;
13469;SDS011;6807;48.682;9.032;2022-09-12T18:51:28;1.80;;;1.70;;
13469;SDS011;6807;48.682;9.032;2022-09-12T18:53:57;1.98;;;1.70;;
13469;SDS011;6807;48.682;9.032;2022-09-12T18:56:26;1.85;;;1.70;;
13469;SDS011;6807;48.682;9.032;2022-09-12T18:58:56;1.67;;;1.58;;
13469;SDS011;6807;48.682;9.032;2022-09-12T19:01:24;2.03;;;1.60;;
13469;SDS011;6807;48.682;9.032;2022-09-12T19:03:54;2.63;;;1.65;;
13469;SDS011;6807;48.682;9.032;2022-09-12T19:06:22;1.52;;;1.42;;
13469;SDS011;6807;48.682;9.032;2022-09-12T19:08:50;1.80;;;1.60;;
13469;SDS011;6807;48.682;9.032;2022-09-12T19:11:18;3.40;;;1.70;;
13469;SDS011;6807;48.682;9.032;2022-09-12T19:13:47;1.77;;;1.60;;
13469;SDS011;6807;48.682;9.032;2022-09-12T19:19:24;1.73;;;1.60;;
13469;SDS011;6807;48.682;9.032;2022-09-12T19:25:32;3.30;;;1.55;;
13469;SDS011;6807;48.682;9.032;2022-09-12T19:27:59;1.70;;;1.60;;
13469;SDS011;6807;48.682;9.032;2022-09-12T19:30:25;1.92;;;1.42;;
13469;SDS011;6807;48.682;9.032;2022-09-12T19:32:55;1.67;;;1.48;;
13469;SDS011;6807;48.682;9.032;2022-09-12T19:35:26;4.22;;;1.65;;
13469;SDS011;6807;48.682;9.032;2022-09-12T19:37:56;2.28;;;1.60;;
13469;SDS011;6807;48.682;9.032;2022-09-12T19:40:23;2.83;;;1.85;;
13469;SDS011;6807;48.682;9.032;2022-09-12T19:42:50;2.55;;;1.83;;
13469;SDS011;6807;48.682;9.032;2022-09-12T19:45:20;2.75;;;1.60;;
13469;SDS011;6807;48.682;9.032;2022-09-12T19:50:14;1.80;;;1.70;;